Time;durP1;ratioP1;P1;durP2;ratioP2;P2;SDS_P1;SDS_P2;PMS_P1;PMS_P2;Temp;Humidity;BMP_temperature;BMP_pressure;BME280_temperature;BME280_humidity;BME280_pressure;Samples;Min_cycle;Max_cycle;Signal;HPM_P1;HPM_P2
2022/10/31 00:01:28;;;;;;;31.85;16.95;;;;;;;7.71;100.00;98466.78;1725813;81;21084;-81
2022/10/31 00:03:54;;;;;;;29.12;16.65;;;;;;;7.67;100.00;98466.98;1703125;83;21441;-81
2022/10/31 00:06:21;;;;;;;35.85;16.30;;;;;;;7.63;100.00;98467.50;1725969;82;21012;-82
2022/10/31 00:08:49;;;;;;;26.82;15.85;;;;;;;7.63;100.00;98462.64;1722547;83;21161;-81
2022/10/31 00:11:15;;;;;;;28.52;14.83;;;;;;;7.62;100.00;98465.88;1711435;83;21008;-81
2022/10/31 00:13:41;;;;;;;25.75;14.33;;;;;;;7.63;100.00;98466.69;1716000;81;20886;-81
2022/10/31 00:16:20;;;;;;;28.15;15.18;;;;;;;7.73;100.00;98470.05;1721887;82;20953;-83
2022/10/31 00:18:53;;;;;;;25.90;13.50;;;;;;;7.77;100.00;98469.81;1722142;82;20992;-81
2022/10/31 00:21:19;;;;;;;27.40;15.23;;;;;;;7.83;100.00;98468.81;1711587;83;21712;-82
2022/10/31 00:23:45;;;;;;;25.57;14.75;;;;;;;7.90;100.00;98470.27;1715406;82;20878;-81
2022/10/31 00:26:11;;;;;;;28.23;17.50;;;;;;;7.98;100.00;98472.25;1707036;83;21024;-81
2022/10/31 00:28:37;;;;;;;28.87;14.45;;;;;;;8.09;100.00;98471.29;1706392;84;20842;-81
2022/10/31 00:31:06;;;;;;;35.05;17.48;;;;;;;8.19;100.00;98468.16;1706508;83;20973;-80
2022/10/31 00:33:36;;;;;;;27.55;14.75;;;;;;;8.12;100.00;98464.87;1706594;84;21164;-81
2022/10/31 00:36:03;;;;;;;27.87;16.07;;;;;;;8.20;100.00;98471.17;1706070;84;21403;-81
2022/10/31 00:38:28;;;;;;;24.85;14.18;;;;;;;8.20;100.00;98471.17;1686825;84;21041;-81
2022/10/31 00:40:54;;;;;;;29.23;14.85;;;;;;;8.15;100.00;98469.75;1706561;84;20870;-83
2022/10/31 00:43:20;;;;;;;29.20;15.55;;;;;;;8.14;100.00;98469.47;1702900;83;20995;-82
2022/10/31 00:45:46;;;;;;;26.05;14.83;;;;;;;8.20;100.00;98468.47;1679740;85;21187;-82
2022/10/31 00:48:12;;;;;;;25.12;14.55;;;;;;;8.13;100.00;98472.43;1679290;85;20955;-80
2022/10/31 00:50:38;;;;;;;29.20;14.65;;;;;;;8.07;100.00;98474.25;1679776;85;20912;-82
2022/10/31 00:53:04;;;;;;;23.60;12.88;;;;;;;7.97;100.00;98468.73;1679140;85;20984;-81
2022/10/31 00:55:30;;;;;;;28.80;14.03;;;;;;;7.91;100.00;98475.94;1679767;85;21062;-81
2022/10/31 00:57:56;;;;;;;24.32;14.25;;;;;;;7.93;100.00;98479.20;1679428;85;21198;-82
2022/10/31 01:04:22;;;;;;;27.90;15.95;;;;;;;7.74;100.00;98476.53;1679376;85;21028;-80
2022/10/31 01:06:48;;;;;;;23.65;13.70;;;;;;;7.59;100.00;98482.53;1658299;84;20956;-82
2022/10/31 01:09:13;;;;;;;32.73;15.90;;;;;;;7.45;100.00;98491.25;1714076;83;20944;-83
2022/10/31 01:11:39;;;;;;;30.88;14.47;;;;;;;7.32;100.00;98490.51;1711866;83;20937;-81
2022/10/31 01:14:05;;;;;;;31.70;16.27;;;;;;;7.24;100.00;98484.72;1714821;82;20842;-81
2022/10/31 01:16:31;;;;;;;27.00;15.05;;;;;;;7.11;100.00;98486.42;1714478;83;20898;-81
2022/10/31 01:18:57;;;;;;;24.25;14.58;;;;;;;7.06;100.00;98492.00;1711097;83;20902;-81
2022/10/31 01:21:25;;;;;;;23.85;12.40;;;;;;;7.03;100.00;98484.42;1714464;82;20921;-80
2022/10/31 01:23:53;;;;;;;27.82;14.03;;;;;;;7.03;100.00;98487.11;1703836;84;21098;-81
2022/10/31 01:26:24;;;;;;;34.65;13.90;;;;;;;7.05;100.00;98485.52;1707281;82;21135;-81
2022/10/31 01:28:53;;;;;;;20.35;11.28;;;;;;;7.06;100.00;98486.61;1706346;84;20987;-82
2022/10/31 01:31:21;;;;;;;25.95;11.93;;;;;;;7.05;100.00;98480.12;1706726;83;21060;-83
2022/10/31 01:33:47;;;;;;;19.77;11.40;;;;;;;7.04;100.00;98480.66;1706370;84;21481;-83
2022/10/31 01:36:23;;;;;;;27.42;12.23;;;;;;;7.07;100.00;98485.55;1706642;84;21288;-83
2022/10/31 01:38:49;;;;;;;26.05;14.18;;;;;;;7.09;100.00;98477.20;1706300;84;21037;-82
2022/10/31 01:41:20;;;;;;;28.92;14.63;;;;;;;7.12;100.00;98474.05;1706644;83;20986;-82
2022/10/31 01:43:58;;;;;;;23.80;13.98;;;;;;;7.09;100.00;98477.20;1706826;84;21034;-80
2022/10/31 01:46:36;;;;;;;21.63;13.27;;;;;;;7.03;100.00;98470.94;1708120;84;21018;-81
2022/10/31 01:49:06;;;;;;;28.75;13.62;;;;;;;6.95;100.00;98465.97;1707870;83;20988;-82
2022/10/31 01:51:36;;;;;;;22.13;12.93;;;;;;;6.99;100.00;98466.28;1695808;84;21530;-80
2022/10/31 01:54:06;;;;;;;24.30;11.63;;;;;;;7.14;100.00;98476.48;1707810;83;20975;-80
2022/10/31 01:56:32;;;;;;;24.55;12.45;;;;;;;7.18;100.00;98461.44;1708067;83;21108;-81
2022/10/31 01:58:58;;;;;;;24.57;12.53;;;;;;;7.22;100.00;98463.94;1707850;83;20970;-81
2022/10/31 02:01:24;;;;;;;24.85;12.00;;;;;;;7.17;100.00;98467.89;1708136;83;20901;-81
2022/10/31 02:03:50;;;;;;;21.90;12.07;;;;;;;7.06;100.00;98469.09;1707943;84;21588;-81
2022/10/31 02:06:25;;;;;;;19.90;11.33;;;;;;;7.01;100.00;98467.69;1708116;84;20950;-80
2022/10/31 02:08:50;;;;;;;19.87;12.60;;;;;;;7.03;100.00;98470.94;1700379;83;21451;-82
2022/10/31 02:11:16;;;;;;;23.30;12.15;;;;;;;7.16;100.00;98472.47;1708203;83;20974;-81
2022/10/31 02:13:42;;;;;;;20.77;11.38;;;;;;;7.20;100.00;98470.12;1707824;84;21342;-82
2022/10/31 02:16:09;;;;;;;21.37;10.75;;;;;;;7.15;100.00;98466.80;1708293;84;20969;-81
2022/10/31 02:18:34;;;;;;;27.80;11.75;;;;;;;7.28;100.00;98471.05;1707886;84;21458;-81
2022/10/31 02:21:15;;;;;;;19.85;10.43;;;;;;;7.58;100.00;98470.11;1708087;84;20918;-80
2022/10/31 02:24:15;;;;;;;17.82;11.10;;;;;;;7.93;100.00;98466.23;1707937;83;21010;-82
2022/10/31 02:27:08;;;;;;;21.65;11.78;;;;;;;7.81;100.00;98465.56;1678261;84;21172;-81
2022/10/31 02:29:55;;;;;;;26.17;14.28;;;;;;;7.71;100.00;98463.55;1677870;84;21041;-81
2022/10/31 02:32:41;;;;;;;22.27;11.40;;;;;;;7.81;100.00;98468.27;1678183;85;21069;-81
2022/10/31 02:35:31;;;;;;;24.85;9.45;;;;;;;7.87;100.00;98475.36;1677564;84;21065;-80
2022/10/31 02:38:20;;;;;;;18.85;10.80;;;;;;;7.71;100.00;98474.88;1678017;84;21013;-81
2022/10/31 02:41:03;;;;;;;17.98;10.20;;;;;;;7.61;100.00;98476.91;1677981;84;21431;-81
2022/10/31 02:43:50;;;;;;;15.13;9.40;;;;;;;7.59;100.00;98470.92;1684405;84;20994;-81
2022/10/31 02:46:27;;;;;;;18.57;10.35;;;;;;;7.57;100.00;98477.11;1708314;84;21038;-81
2022/10/31 02:48:55;;;;;;;17.48;8.58;;;;;;;7.56;100.00;98477.64;1708152;84;20990;-81
2022/10/31 02:51:21;;;;;;;16.75;9.58;;;;;;;7.48;100.00;98475.91;1708176;84;21453;-82
2022/10/31 02:53:48;;;;;;;18.75;8.78;;;;;;;7.41;100.00;98470.69;1707780;84;39942;-82
2022/10/31 02:56:17;;;;;;;20.72;9.10;;;;;;;7.43;100.00;98473.94;1708316;84;20945;-81
2022/10/31 02:59:00;;;;;;;19.87;10.20;;;;;;;7.41;100.00;98476.61;1707915;84;21013;-81
2022/10/31 03:01:40;;;;;;;17.67;9.85;;;;;;;7.40;100.00;98470.41;1708241;84;20967;-82
2022/10/31 03:04:33;;;;;;;18.00;8.35;;;;;;;7.40;100.00;98472.28;1708113;84;21021;-82
2022/10/31 03:07:23;;;;;;;14.53;8.15;;;;;;;7.41;100.00;98476.61;1708219;83;21140;-81
2022/10/31 03:10:23;;;;;;;13.20;7.37;;;;;;;7.44;100.00;98477.48;1706811;84;21430;-83
2022/10/31 03:13:22;;;;;;;18.57;10.10;;;;;;;7.46;100.00;98479.39;1706472;84;21021;-82
2022/10/31 03:15:55;;;;;;;22.40;9.23;;;;;;;7.48;100.00;98482.11;1706950;84;20966;-80
2022/10/31 03:18:40;;;;;;;16.75;9.18;;;;;;;7.47;100.00;98479.14;1706521;83;21020;-82
2022/10/31 03:21:16;;;;;;;16.32;10.30;;;;;;;7.48;100.00;98482.66;1706590;84;21307;-82
2022/10/31 03:23:44;;;;;;;18.02;9.48;;;;;;;7.38;100.00;98485.20;1706430;84;20966;-81
2022/10/31 03:26:10;;;;;;;22.77;10.82;;;;;;;7.30;100.00;98477.81;1708001;84;21018;-82
2022/10/31 03:28:42;;;;;;;16.60;8.75;;;;;;;7.27;100.00;98491.80;1707924;84;20994;-82
2022/10/31 03:31:08;;;;;;;17.92;8.93;;;;;;;7.28;100.00;98488.03;1708436;83;21061;-81
2022/10/31 03:33:36;;;;;;;13.00;8.15;;;;;;;7.31;100.00;98491.58;1707926;84;21920;-80
2022/10/31 03:36:03;;;;;;;19.67;9.25;;;;;;;7.31;100.00;98490.23;1708197;84;20983;-82
2022/10/31 03:38:29;;;;;;;16.87;8.08;;;;;;;7.38;100.00;98496.80;1708082;84;21002;-82
2022/10/31 03:40:56;;;;;;;12.75;5.75;;;;;;;7.42;100.00;98497.92;1708002;84;21431;-82
2022/10/31 03:43:26;;;;;;;13.13;5.83;;;;;;;7.50;100.00;98495.34;1703134;84;21050;-81
2022/10/31 03:45:52;;;;;;;14.50;7.85;;;;;;;7.59;100.00;98500.59;1679894;85;21337;-83
2022/10/31 03:48:18;;;;;;;12.80;7.55;;;;;;;7.63;100.00;98501.75;1679554;85;20948;-81
2022/10/31 03:51:11;;;;;;;18.57;8.53;;;;;;;7.60;100.00;98494.95;1679816;85;21425;-82
2022/10/31 03:53:51;;;;;;;18.32;9.00;;;;;;;7.56;100.00;98496.52;1679530;85;21174;-80
2022/10/31 03:56:42;;;;;;;14.78;7.78;;;;;;;7.56;100.00;98495.17;1659878;85;21491;-81
2022/10/31 03:59:12;;;;;;;16.62;8.20;;;;;;;7.51;100.00;98500.48;1679466;85;21138;-82
2022/10/31 04:01:41;;;;;;;17.42;7.90;;;;;;;7.42;100.00;98500.63;1679755;85;21442;-83
2022/10/31 04:04:07;;;;;;;14.30;7.53;;;;;;;7.41;100.00;98501.69;1679518;85;21023;-82
2022/10/31 04:06:34;;;;;;;13.38;6.92;;;;;;;7.45;100.00;98496.64;1679863;85;20896;-81
2022/10/31 04:09:02;;;;;;;17.87;6.92;;;;;;;7.46;100.00;98500.43;1705872;84;21095;-82
2022/10/31 04:11:33;;;;;;;12.18;6.42;;;;;;;7.51;100.00;98497.79;1708100;84;21805;-80
2022/10/31 04:13:59;;;;;;;9.73;5.53;;;;;;;7.54;100.00;98501.36;1650559;86;21749;-82
2022/10/31 04:16:25;;;;;;;16.95;8.38;;;;;;;7.58;100.00;98503.83;1720765;82;20975;-82
2022/10/31 04:18:51;;;;;;;16.12;8.10;;;;;;;7.60;100.00;98505.73;1706405;84;20882;-83
2022/10/31 04:21:17;;;;;;;14.35;8.10;;;;;;;7.62;100.00;98506.86;1691549;82;21492;-83
2022/10/31 04:23:44;;;;;;;16.15;8.35;;;;;;;7.62;100.00;98499.58;1711590;83;21219;-81
2022/10/31 04:26:12;;;;;;;17.30;8.48;;;;;;;7.62;100.00;98507.67;1768665;80;20885;-80
2022/10/31 04:28:38;;;;;;;;;;;;;;;7.59;100.00;98505.98;1780061;80;20989;-83
2022/10/31 04:31:04;;;;;;;15.55;7.25;;;;;;;7.56;100.00;98513.23;1777765;80;20241;-82
2022/10/31 04:33:30;;;;;;;16.35;7.95;;;;;;;7.54;100.00;98509.45;1777455;80;21991;-81
2022/10/31 04:35:56;;;;;;;17.62;7.35;;;;;;;7.52;100.00;98511.58;1777511;80;21909;-83
2022/10/31 04:38:22;;;;;;;13.68;7.53;;;;;;;7.51;100.00;98513.97;1777405;80;20853;-81
2022/10/31 04:40:48;;;;;;;13.00;7.15;;;;;;;7.47;100.00;98505.29;1777556;80;20904;-81
2022/10/31 04:43:14;;;;;;;14.73;7.58;;;;;;;7.46;100.00;98509.05;1771526;80;20837;-82
2022/10/31 04:45:40;;;;;;;12.50;7.85;;;;;;;7.45;100.00;98512.28;1726220;83;20988;-82
2022/10/31 04:48:06;;;;;;;17.57;7.97;;;;;;;7.40;100.00;98512.73;1726005;83;22008;-81
2022/10/31 04:50:32;;;;;;;12.37;8.30;;;;;;;7.35;100.00;98509.44;1726147;83;20933;-81
2022/10/31 04:52:58;;;;;;;14.50;8.58;;;;;;;7.32;100.00;98511.27;1726079;82;20905;-81
2022/10/31 04:55:24;;;;;;;20.20;10.08;;;;;;;7.27;100.00;98511.20;1726046;83;20885;-81
2022/10/31 04:57:50;;;;;;;17.17;7.72;;;;;;;7.20;100.00;98513.24;1726108;81;21046;-81
2022/10/31 05:00:18;;;;;;;18.37;8.28;;;;;;;7.11;100.00;98518.23;1726039;83;21240;-80
2022/10/31 05:02:49;;;;;;;13.68;7.15;;;;;;;7.04;100.00;98519.73;1725945;81;21059;-82
2022/10/31 05:05:16;;;;;;;14.90;7.72;;;;;;;6.98;100.00;98514.49;1725852;83;20974;-80
2022/10/31 05:07:42;;;;;;;13.53;7.22;;;;;;;6.96;100.00;98521.48;1733413;82;21421;-82
2022/10/31 05:10:10;;;;;;;23.62;8.08;;;;;;;6.98;100.00;98518.00;1745064;82;21031;-82
2022/10/31 05:12:36;;;;;;;23.40;10.40;;;;;;;6.95;100.00;98516.34;1745120;82;21121;-82
2022/10/31 05:15:03;;;;;;;14.05;8.25;;;;;;;6.88;100.00;98516.49;1745219;82;20964;-81
2022/10/31 05:17:31;;;;;;;15.60;9.05;;;;;;;6.82;100.00;98519.34;1745130;82;20984;-82
2022/10/31 05:19:57;;;;;;;16.30;9.33;;;;;;;6.80;100.00;98518.23;1745063;82;21008;-82
2022/10/31 05:22:23;;;;;;;18.80;8.98;;;;;;;6.78;100.00;98523.05;1745148;82;20968;-81
2022/10/31 05:24:49;;;;;;;30.30;11.78;;;;;;;6.82;100.00;98516.11;1739873;82;21931;-81
2022/10/31 05:27:15;;;;;;;17.30;10.80;;;;;;;6.83;100.00;98522.31;1725910;83;20957;-81
2022/10/31 05:29:40;;;;;;;23.83;11.00;;;;;;;6.84;100.00;98520.75;1726134;83;21543;-81
2022/10/31 05:32:06;;;;;;;16.05;9.18;;;;;;;6.78;100.00;98525.22;1726005;83;22320;-80
2022/10/31 05:34:32;;;;;;;27.48;10.32;;;;;;;6.77;100.00;98523.59;1725643;83;20878;-83
2022/10/31 05:36:58;;;;;;;29.65;11.30;;;;;;;6.85;100.00;98522.91;1726151;83;21230;-82
2022/10/31 05:39:24;;;;;;;29.87;11.00;;;;;;;6.85;100.00;98522.37;1725590;83;20889;-81
2022/10/31 05:41:50;;;;;;;23.10;12.13;;;;;;;6.99;100.00;98529.06;1725889;83;20970;-82
2022/10/31 05:44:16;;;;;;;16.77;9.35;;;;;;;7.04;100.00;98531.86;1709970;82;22178;-81
2022/10/31 05:46:42;;;;;;;22.80;12.53;;;;;;;7.03;100.00;98530.23;1697245;84;20887;-81
2022/10/31 05:49:08;;;;;;;21.85;10.10;;;;;;;6.95;100.00;98533.32;1696640;84;21169;-80
2022/10/31 05:51:34;;;;;;;29.27;13.08;;;;;;;7.00;100.00;98531.23;1720565;80;21017;-82
2022/10/31 05:54:00;;;;;;;19.00;9.65;;;;;;;6.96;100.00;98534.14;1723000;80;20904;-82
2022/10/31 05:56:26;;;;;;;15.32;7.85;;;;;;;6.91;100.00;98534.04;1724823;81;20865;-81
2022/10/31 05:58:52;;;;;;;16.02;7.72;;;;;;;6.95;100.00;98537.89;1735364;81;21643;-82
2022/10/31 06:01:18;;;;;;;15.15;8.43;;;;;;;6.95;100.00;98534.67;1758064;80;21253;-83
2022/10/31 06:03:44;;;;;;;17.73;8.45;;;;;;;6.94;100.00;98548.39;1777157;80;21019;-82
2022/10/31 06:06:10;;;;;;;21.15;9.73;;;;;;;6.88;100.00;98547.47;1777475;80;20865;-81
2022/10/31 06:08:36;;;;;;;19.40;10.25;;;;;;;6.88;100.00;98550.17;1737221;80;20881;-83
2022/10/31 06:11:02;;;;;;;14.73;8.80;;;;;;;6.93;100.00;98552.96;1726067;82;21009;-81
2022/10/31 06:13:28;;;;;;;14.85;8.08;;;;;;;6.97;100.00;98561.36;1725945;83;21155;-80
2022/10/31 06:15:54;;;;;;;16.70;9.50;;;;;;;6.96;100.00;98561.08;1732450;82;20857;-81
2022/10/31 06:18:20;;;;;;;15.28;8.45;;;;;;;7.03;100.00;98561.22;1731695;82;21527;-81
2022/10/31 06:20:45;;;;;;;13.43;7.70;;;;;;;7.12;100.00;98568.37;1726260;83;20889;-83
2022/10/31 06:23:11;;;;;;;22.55;10.78;;;;;;;7.20;100.00;98568.50;1726238;83;20976;-81
2022/10/31 06:25:37;;;;;;;23.65;12.00;;;;;;;7.15;100.00;98565.70;1724561;81;21312;-82
2022/10/31 06:28:04;;;;;;;24.63;11.95;;;;;;;7.17;100.00;98568.97;1708495;82;22399;-81
2022/10/31 06:30:30;;;;;;;18.80;10.63;;;;;;;7.18;100.00;98575.98;1695815;84;21045;-83
2022/10/31 06:33:04;;;;;;;16.57;10.10;;;;;;;7.23;100.00;98578.25;1708046;84;20847;-81
2022/10/31 06:35:30;;;;;;;20.72;10.25;;;;;;;7.32;100.00;98578.13;1675056;84;21468;-81
2022/10/31 06:37:56;;;;;;;17.05;10.20;;;;;;;7.45;100.00;98574.84;1674125;84;21906;-80
2022/10/31 06:40:22;;;;;;;22.37;11.33;;;;;;;7.50;100.00;98578.41;1674080;85;21639;-81
2022/10/31 06:42:49;;;;;;;27.48;11.15;;;;;;;7.66;100.00;98575.42;1636844;84;20919;-81
2022/10/31 06:45:15;;;;;;;21.05;12.18;;;;;;;7.77;100.00;98579.89;1633905;85;21045;-81
2022/10/31 06:47:41;;;;;;;27.55;11.83;;;;;;;8.24;100.00;98571.89;1699798;82;21036;-81
2022/10/31 06:50:08;;;;;;;22.15;10.53;;;;;;;8.47;100.00;98579.24;1679433;85;22008;-82
2022/10/31 06:52:34;;;;;;;22.52;10.23;;;;;;;8.66;100.00;98578.38;1698124;84;21027;-83
2022/10/31 06:55:00;;;;;;;21.05;9.88;;;;;;;8.63;100.00;98572.64;1695546;84;21396;-83
2022/10/31 06:57:26;;;;;;;18.85;11.08;;;;;;;8.58;100.00;98565.31;1630734;87;20872;-82
2022/10/31 06:59:52;;;;;;;21.00;10.80;;;;;;;8.81;100.00;98575.02;1654011;85;21566;-83
2022/10/31 07:02:18;;;;;;;21.40;10.23;;;;;;;8.86;100.00;98576.95;1695068;82;21297;-83
2022/10/31 07:04:44;;;;;;;19.40;10.65;;;;;;;8.92;100.00;98582.16;1690025;84;20898;-82
2022/10/31 07:07:09;;;;;;;23.07;10.80;;;;;;;8.96;100.00;98577.86;1659112;85;20980;-80
2022/10/31 07:09:35;;;;;;;25.82;13.70;;;;;;;9.04;100.00;98576.58;1680408;84;21036;-83
2022/10/31 07:12:01;;;;;;;25.15;14.60;;;;;;;9.07;100.00;98575.28;1700837;82;20888;-81
2022/10/31 07:14:27;;;;;;;19.87;13.55;;;;;;;9.08;100.00;98576.91;1706595;84;21297;-82
2022/10/31 07:16:53;;;;;;;20.52;11.78;;;;;;;9.09;100.00;98577.99;1703869;84;20993;-82
2022/10/31 07:19:19;;;;;;;24.57;13.83;;;;;;;9.12;100.00;98584.23;1692701;83;20974;-81
2022/10/31 07:21:45;;;;;;;23.73;11.60;;;;;;;9.16;100.00;98584.02;1688673;84;22299;-81
2022/10/31 07:24:11;;;;;;;23.75;13.58;;;;;;;9.23;100.00;98581.92;1694496;82;21579;-82
2022/10/31 07:26:37;;;;;;;23.10;12.82;;;;;;;9.28;100.00;98578.42;1696151;82;21141;-83
2022/10/31 07:29:03;;;;;;;20.08;12.00;;;;;;;9.37;100.00;98580.12;1697524;82;20870;-83
2022/10/31 07:31:29;;;;;;;20.50;11.08;;;;;;;9.46;100.00;98585.33;1689241;82;20882;-81
2022/10/31 07:33:55;;;;;;;24.80;11.63;;;;;;;9.52;100.00;98589.17;1679965;82;20901;-83
2022/10/31 07:36:20;;;;;;;19.45;10.10;;;;;;;9.62;100.00;98584.37;1708259;82;21049;-80
2022/10/31 07:38:46;;;;;;;19.62;10.95;;;;;;;9.72;100.00;98587.15;1714193;82;21023;-80
2022/10/31 07:41:13;;;;;;;25.65;11.63;;;;;;;9.85;100.00;98581.84;1671139;84;21023;-83
2022/10/31 07:43:38;;;;;;;24.47;10.88;;;;;;;9.93;100.00;98582.70;1670931;84;21002;-81
2022/10/31 07:46:05;;;;;;;19.35;11.38;;;;;;;10.07;100.00;98585.20;1683685;82;20923;-82
2022/10/31 07:48:31;;;;;;;16.55;11.05;;;;;;;10.16;100.00;98584.16;1661621;84;21052;-83
2022/10/31 07:50:56;;;;;;;23.65;11.55;;;;;;;10.24;100.00;98580.17;1693512;82;22265;-81
2022/10/31 07:53:22;;;;;;;18.57;9.33;;;;;;;10.36;100.00;98584.84;1662878;85;20991;-83
2022/10/31 07:55:48;;;;;;;19.70;8.65;;;;;;;10.47;100.00;98579.73;1687597;84;20961;-81
2022/10/31 07:58:15;;;;;;;12.03;7.20;;;;;;;10.60;100.00;98582.51;1692644;84;20918;-81
2022/10/31 08:00:44;;;;;;;18.90;7.33;;;;;;;10.69;100.00;98581.72;1696390;82;21025;-83
2022/10/31 08:03:13;;;;;;;;;;;;;;;10.85;100.00;98577.67;1730028;82;21724;-83
2022/10/31 08:05:40;;;;;;;17.17;6.80;;;;;;;10.95;100.00;98576.36;1673117;83;20207;-81
2022/10/31 08:08:07;;;;;;;17.95;7.65;;;;;;;11.06;100.00;98578.55;1682800;82;21084;-82
2022/10/31 08:10:33;;;;;;;13.35;7.10;;;;;;;11.17;100.00;98578.81;1678455;85;21009;-81
2022/10/31 08:13:01;;;;;;;20.72;7.78;;;;;;;11.28;100.00;98581.83;1718537;82;21428;-82
2022/10/31 08:15:27;;;;;;;20.10;8.85;;;;;;;11.39;100.00;98579.38;1708129;82;21076;-83
2022/10/31 08:17:53;;;;;;;23.95;9.48;;;;;;;11.52;100.00;98578.83;1691516;84;20887;-83
2022/10/31 08:20:19;;;;;;;24.10;8.95;;;;;;;11.65;100.00;98582.91;1690743;82;21070;-82
2022/10/31 08:23:00;;;;;;;32.23;9.40;;;;;;;11.76;100.00;98580.44;1690667;82;21132;-83
2022/10/31 08:25:29;;;;;;;17.05;8.53;;;;;;;11.93;100.00;98573.93;1693600;82;21048;-82
2022/10/31 08:27:55;;;;;;;19.50;8.53;;;;;;;12.09;100.00;98574.16;1697408;82;21730;-83
2022/10/31 08:30:22;;;;;;;14.30;7.03;;;;;;;12.24;100.00;98571.41;1682217;82;21014;-81
2022/10/31 08:33:01;;;;;;;14.87;6.28;;;;;;;12.34;100.00;98577.34;1690009;83;21549;-83
2022/10/31 08:35:27;;;;;;;16.45;7.65;;;;;;;12.46;100.00;98572.39;1701861;82;21115;-81
2022/10/31 08:37:55;;;;;;;15.18;7.40;;;;;;;12.60;100.00;98573.43;1695394;82;20988;-83
2022/10/31 08:40:21;;;;;;;16.80;8.25;;;;;;;12.70;100.00;98571.20;1693698;82;21137;-83
2022/10/31 08:42:47;;;;;;;12.37;6.65;;;;;;;12.81;100.00;98569.23;1692753;82;20989;-83
2022/10/31 08:45:13;;;;;;;15.38;9.00;;;;;;;12.90;100.00;98572.98;1693579;82;20997;-81
2022/10/31 08:47:39;;;;;;;19.70;7.17;;;;;;;13.00;100.00;98566.15;1703794;82;21047;-83
2022/10/31 08:50:05;;;;;;;19.48;9.15;;;;;;;13.12;100.00;98566.59;1699203;82;20913;-84
2022/10/31 08:52:31;;;;;;;19.32;6.45;;;;;;;13.23;100.00;98566.81;1696117;82;21858;-83
2022/10/31 08:54:57;;;;;;;19.85;5.78;;;;;;;13.34;100.00;98568.12;1691170;82;20910;-81
2022/10/31 08:57:23;;;;;;;18.10;5.65;;;;;;;13.43;100.00;98565.05;1691231;84;20914;-81
2022/10/31 08:59:49;;;;;;;18.07;6.45;;;;;;;13.53;100.00;98564.41;1699678;82;20878;-83
2022/10/31 09:02:15;;;;;;;13.98;6.20;;;;;;;13.68;100.00;98561.30;1703501;84;21033;-81
2022/10/31 09:04:41;;;;;;;17.98;7.22;;;;;;;13.77;100.00;98565.83;1688834;84;21708;-81
2022/10/31 09:07:07;;;;;;;15.63;7.60;;;;;;;13.89;100.00;98566.80;1694227;84;20894;-83
2022/10/31 09:09:32;;;;;;;18.12;6.25;;;;;;;14.02;100.00;98562.03;1694039;82;20890;-83
2022/10/31 09:11:58;;;;;;;14.58;6.70;;;;;;;14.12;100.00;98566.56;1702731;82;20906;-83
2022/10/31 09:14:24;;;;;;;27.58;19.40;;;;;;;14.22;100.00;98565.63;1696106;82;20949;-82
2022/10/31 09:16:51;;;;;;;19.25;13.98;;;;;;;14.32;100.00;98564.14;1698243;82;21522;-82
2022/10/31 09:19:17;;;;;;;17.02;8.95;;;;;;;14.46;100.00;98569.75;1694405;84;20998;-82
2022/10/31 09:21:43;;;;;;;18.73;9.35;;;;;;;14.58;100.00;98562.76;1714009;82;20961;-82
2022/10/31 09:24:09;;;;;;;23.50;10.90;;;;;;;14.77;100.00;98565.50;1705280;82;20883;-82
2022/10/31 09:26:35;;;;;;;28.00;11.20;;;;;;;15.02;100.00;98564.89;1691021;83;21060;-83
2022/10/31 09:29:01;;;;;;;33.85;13.10;;;;;;;15.12;100.00;98562.00;1690963;82;21971;-84
2022/10/31 09:31:28;;;;;;;38.17;12.45;;;;;;;15.22;100.00;98558.59;1689186;83;21683;-83
2022/10/31 09:33:54;;;;;;;25.23;11.38;;;;;;;15.35;100.00;98567.92;1700827;82;21141;-82
2022/10/31 09:36:20;;;;;;;25.15;9.48;;;;;;;15.47;100.00;98562.84;1707587;82;21014;-81
2022/10/31 09:38:46;;;;;;;18.20;7.70;;;;;;;15.53;100.00;98562.98;1707821;82;20883;-81
2022/10/31 09:41:26;;;;;;;19.87;8.20;;;;;;;15.57;100.00;98560.48;1704851;83;21151;-83
2022/10/31 09:44:16;;;;;;;27.42;13.00;;;;;;;15.65;100.00;98560.39;1695713;82;21017;-84
2022/10/31 09:47:10;;;;;;;18.37;10.78;;;;;;;15.70;100.00;98561.09;1691960;82;21400;-81
2022/10/31 09:49:57;;;;;;;38.73;20.15;;;;;;;15.89;100.00;98564.31;1673054;82;21061;-81
2022/10/31 09:52:28;;;;;;;21.73;10.63;;;;;;;16.10;100.00;98560.66;1676604;83;21152;-82
2022/10/31 09:54:58;;;;;;;25.45;10.63;;;;;;;16.16;100.00;98563.56;1688790;84;21957;-84
2022/10/31 09:57:28;;;;;;;16.70;8.10;;;;;;;16.34;100.00;98557.19;1690783;84;21309;-80
2022/10/31 09:59:54;;;;;;;18.10;10.45;;;;;;;16.56;100.00;98560.55;1692263;82;21077;-81
2022/10/31 10:02:39;;;;;;;19.90;9.63;;;;;;;16.75;100.00;98559.92;1694278;82;20934;-80
2022/10/31 10:05:12;;;;;;;18.73;8.38;;;;;;;16.90;100.00;98555.45;1693313;82;21131;-78
2022/10/31 10:08:01;;;;;;;18.65;8.75;;;;;;;17.05;100.00;98558.97;1691929;82;21049;-79
2022/10/31 10:10:53;;;;;;;12.65;5.28;;;;;;;17.13;100.00;98559.05;1693150;82;21076;-79
2022/10/31 10:13:47;;;;;;;18.25;6.25;;;;;;;17.21;100.00;98558.87;1692275;84;21005;-79
2022/10/31 10:16:33;;;;;;;18.77;7.40;;;;;;;17.34;99.96;98559.36;1687802;82;21468;-79
2022/10/31 10:19:36;;;;;;;13.35;6.87;;;;;;;17.54;96.33;98557.27;1674880;84;21433;-79
2022/10/31 10:22:37;;;;;;;12.37;6.25;;;;;;;17.70;96.23;98557.97;1689767;84;21136;-79
2022/10/31 10:25:23;;;;;;;11.57;6.03;;;;;;;17.79;95.63;98553.91;1700381;82;21093;-79
2022/10/31 10:28:06;;;;;;;19.60;8.45;;;;;;;17.88;95.84;98553.95;1698230;84;21033;-80
2022/10/31 10:30:38;;;;;;;29.12;6.62;;;;;;;17.93;95.66;98548.32;1688742;84;21573;-81
2022/10/31 10:33:12;;;;;;;16.32;8.28;;;;;;;18.00;94.60;98554.17;1684865;84;21470;-81
2022/10/31 10:35:48;;;;;;;14.70;6.90;;;;;;;18.07;91.65;98550.98;1694251;83;21036;-78
2022/10/31 10:38:31;;;;;;;15.15;6.72;;;;;;;18.21;92.97;98551.13;1696590;84;21063;-87
2022/10/31 10:40:58;;;;;;;17.80;6.35;;;;;;;18.25;93.03;98552.09;1693552;82;20974;-79
2022/10/31 10:43:33;;;;;;;14.90;7.33;;;;;;;18.36;92.23;98545.76;1676433;84;21057;-78
2022/10/31 10:49:34;;;;;;;14.20;5.87;;;;;;;18.56;90.40;98544.38;1702263;82;21086;-82
2022/10/31 10:52:30;;;;;;;12.90;6.08;;;;;;;18.71;90.41;98539.02;1690262;82;21504;-79
2022/10/31 10:55:29;;;;;;;10.78;5.83;;;;;;;18.86;86.92;98542.67;1695686;82;21148;-83
2022/10/31 10:58:08;;;;;;;11.57;5.60;;;;;;;19.00;86.90;98536.48;1689302;82;21128;-83
2022/10/31 11:00:41;;;;;;;15.30;5.67;;;;;;;19.12;86.76;98534.45;1712159;82;21030;-82
2022/10/31 11:03:07;;;;;;;12.93;5.15;;;;;;;19.21;85.94;98538.58;1691623;83;21112;-83
2022/10/31 11:05:42;;;;;;;18.32;5.33;;;;;;;19.27;85.80;98543.59;1704640;82;21537;-82
2022/10/31 11:08:08;;;;;;;11.95;5.90;;;;;;;19.33;84.51;98536.00;1646380;85;21004;-81
2022/10/31 11:10:34;;;;;;;20.77;6.17;;;;;;;19.40;84.88;98534.38;1692997;82;20886;-81
2022/10/31 11:13:23;;;;;;;16.85;6.53;;;;;;;19.42;84.44;98531.30;1697689;82;21512;-80
2022/10/31 11:15:57;;;;;;;21.82;7.08;;;;;;;19.43;84.57;98535.09;1692955;83;22170;-81
2022/10/31 11:18:25;;;;;;;14.28;6.75;;;;;;;19.44;83.90;98535.33;1697087;82;21113;-81
2022/10/31 11:20:54;;;;;;;12.03;6.25;;;;;;;19.53;82.06;98525.70;1693862;82;21002;-79
2022/10/31 11:23:21;;;;;;;;;;;;;;;19.54;82.59;98527.88;1699422;82;21330;-80
2022/10/31 11:25:50;;;;;;;17.12;7.20;;;;;;;19.56;83.39;98525.06;1698702;82;20432;-80
2022/10/31 11:28:16;;;;;;;21.55;7.08;;;;;;;19.57;83.35;98519.84;1680838;83;21149;-81
2022/10/31 11:30:55;;;;;;;18.00;7.28;;;;;;;19.57;83.37;98523.13;1694543;82;20996;-80
2022/10/31 11:33:33;;;;;;;20.75;7.25;;;;;;;19.57;81.09;98517.63;1699987;84;21080;-83
2022/10/31 11:36:01;;;;;;;16.35;7.47;;;;;;;19.60;78.81;98521.92;1691939;82;21084;-83
2022/10/31 11:38:38;;;;;;;16.50;8.78;;;;;;;19.63;81.29;98517.13;1693807;84;21474;-83
2022/10/31 11:41:14;;;;;;;20.10;8.90;;;;;;;19.62;80.85;98522.39;1641224;85;21230;-80